Observation data for Abernathy on 01/12/2018      Previous  Date  Next       Current Mesonet Observations  Soil Data  Daily Summary Page  Observations in Plain Language
KARS 120600Z 01003KT M04/M11 A3027 RMK A01 T10441107  RH  061%=      5-min Rain = 0
KARS 120605Z 36002KT M05/M10 A3027 RMK A01 T10461104  RH  063%=      5-min Rain = 0
KARS 120610Z 35003KT M05/M11 A3027 RMK A01 T10481107  RH  063%=      5-min Rain = 0
KARS 120615Z 34003KT M05/M11 A3027 RMK A01 T10521108  RH  064%=      5-min Rain = 0
KARS 120620Z 34003KT M05/M11 A3026 RMK A01 T10541107  RH  066%=      5-min Rain = 0
KARS 120625Z 33002KT M05/M11 A3026 RMK A01 T10531106  RH  066%=      5-min Rain = 0
KARS 120630Z 30002KT M05/M11 A3026 RMK A01 T10531105  RH  067%=      5-min Rain = 0
KARS 120635Z 31002KT M06/M11 A3026 RMK A01 T10571106  RH  068%=      5-min Rain = 0
KARS 120640Z 31002KT M06/M11 A3026 RMK A01 T10611107  RH  070%=      5-min Rain = 0
KARS 120645Z 29003KT M06/M11 A3026 RMK A01 T10641107  RH  071%=      5-min Rain = 0
KARS 120650Z 28003KT M07/M11 A3026 RMK A01 T10661109  RH  071%=      5-min Rain = 0
KARS 120655Z 28004KT M07/M11 A3026 RMK A01 T10681110  RH  072%=      5-min Rain = 0
KARS 120700Z 28003KT M07/M11 A3025 RMK A01 T10691111  RH  072%=      5-min Rain = 0
KARS 120705Z 28003KT M07/M11 A3025 RMK A01 T10701110  RH  073%=      5-min Rain = 0
KARS 120710Z 29003KT M07/M11 A3025 RMK A01 T10691109  RH  073%=      5-min Rain = 0
KARS 120715Z 28003KT M07/M11 A3025 RMK A01 T10681108  RH  073%=      5-min Rain = 0
KARS 120720Z 28003KT M07/M11 A3024 RMK A01 T10691109  RH  073%=      5-min Rain = 0
KARS 120725Z 27004KT M07/M11 A3025 RMK A01 T10701108  RH  074%=      5-min Rain = 0
KARS 120730Z 27004KT M07/M11 A3025 RMK A01 T10681106  RH  074%=      5-min Rain = 0
KARS 120735Z 27004KT M07/M11 A3025 RMK A01 T10671107  RH  073%=      5-min Rain = 0
KARS 120740Z 27005KT M07/M11 A3025 RMK A01 T10651106  RH  073%=      5-min Rain = 0
KARS 120745Z 27005KT M06/M11 A3025 RMK A01 T10641106  RH  072%=      5-min Rain = 0
KARS 120750Z 27005KT M06/M11 A3025 RMK A01 T10631105  RH  072%=      5-min Rain = 0
KARS 120755Z 27006KT M06/M11 A3025 RMK A01 T10631106  RH  072%=      5-min Rain = 0
KARS 120800Z 27006KT M06/M11 A3025 RMK A01 T10641106  RH  072%=      5-min Rain = 0
KARS 120805Z 27007KT M07/M11 A3025 RMK A01 T10651106  RH  072%=      5-min Rain = 0
KARS 120810Z 26006KT M07/M11 A3025 RMK A01 T10661106  RH  073%=      5-min Rain = 0
KARS 120815Z 27006KT M07/M11 A3026 RMK A01 T10681108  RH  073%=      5-min Rain = 0
KARS 120820Z 26006KT M07/M11 A3026 RMK A01 T10681107  RH  074%=      5-min Rain = 0
KARS 120825Z 27006KT M07/M11 A3026 RMK A01 T10681107  RH  073%=      5-min Rain = 0
KARS 120830Z 26005KT M07/M11 A3025 RMK A01 T10681107  RH  074%=      5-min Rain = 0
KARS 120835Z 26006KT M07/M11 A3025 RMK A01 T10661105  RH  073%=      5-min Rain = 0
KARS 120840Z 26005KT M07/M11 A3026 RMK A01 T10651106  RH  072%=      5-min Rain = 0
KARS 120845Z 27005KT M07/M11 A3026 RMK A01 T10661106  RH  073%=      5-min Rain = 0
KARS 120850Z 27005KT M07/M11 A3026 RMK A01 T10651105  RH  073%=      5-min Rain = 0
KARS 120855Z 27005KT M07/M11 A3026 RMK A01 T10651106  RH  073%=      5-min Rain = 0
KARS 120900Z 27006KT M07/M11 A3026 RMK A01 T10671106  RH  074%=      5-min Rain = 0
KARS 120905Z 25005KT M07/M11 A3025 RMK A01 T10661105  RH  074%=      5-min Rain = 0
KARS 120910Z 25006KT M07/M11 A3025 RMK A01 T10671106  RH  074%=      5-min Rain = 0
KARS 120915Z 24005KT M07/M10 A3025 RMK A01 T10661104  RH  074%=      5-min Rain = 0
KARS 120920Z 25005KT M07/M11 A3025 RMK A01 T10671106  RH  073%=      5-min Rain = 0
KARS 120925Z 24005KT M07/M11 A3024 RMK A01 T10661105  RH  073%=      5-min Rain = 0
KARS 120930Z 24005KT M07/M11 A3024 RMK A01 T10651105  RH  073%=      5-min Rain = 0
KARS 120935Z 22005KT M06/M10 A3023 RMK A01 T10631104  RH  072%=      5-min Rain = 0
KARS 120940Z 23006KT M07/M11 A3023 RMK A01 T10681109  RH  072%=      5-min Rain = 0
KARS 120945Z 21005KT M07/M11 A3023 RMK A01 T10721110  RH  074%=      5-min Rain = 0
KARS 120950Z 21006KT M07/M11 A3022 RMK A01 T10731111  RH  074%=      5-min Rain = 0
KARS 120955Z 21005KT M07/M11 A3022 RMK A01 T10701110  RH  073%=      5-min Rain = 0
KARS 121000Z 21005KT M07/M11 A3022 RMK A01 T10701111  RH  073%=      5-min Rain = 0
KARS 121005Z 21005KT M07/M11 A3023 RMK A01 T10691109  RH  072%=      5-min Rain = 0
KARS 121010Z 21005KT M07/M11 A3023 RMK A01 T10651107  RH  072%=      5-min Rain = 0
KARS 121015Z 21004KT M06/M11 A3023 RMK A01 T10611106  RH  070%=      5-min Rain = 0
KARS 121020Z 20004KT M06/M11 A3022 RMK A01 T10621107  RH  070%=      5-min Rain = 0
KARS 121025Z 19004KT M06/M11 A3022 RMK A01 T10621106  RH  071%=      5-min Rain = 0
KARS 121030Z 19004KT M06/M11 A3023 RMK A01 T10631107  RH  070%=      5-min Rain = 0
KARS 121035Z 21004KT M06/M11 A3023 RMK A01 T10621106  RH  070%=      5-min Rain = 0
KARS 121040Z 21004KT M06/M11 A3023 RMK A01 T10611106  RH  070%=      5-min Rain = 0
KARS 121045Z 20005KT M06/M11 A3022 RMK A01 T10611106  RH  070%=      5-min Rain = 0
KARS 121050Z 19006KT M06/M11 A3022 RMK A01 T10621107  RH  070%=      5-min Rain = 0
KARS 121055Z 19006KT M07/M11 A3022 RMK A01 T10681111  RH  071%=      5-min Rain = 0
KARS 121100Z 18007KT M07/M11 A3022 RMK A01 T10711111  RH  073%=      5-min Rain = 0
KARS 121105Z 18007KT M07/M11 A3022 RMK A01 T10731108  RH  076%=      5-min Rain = 0
KARS 121110Z 18006KT M07/M10 A3022 RMK A01 T10721104  RH  077%=      5-min Rain = 0
KARS 121115Z 18006KT M07/M10 A3022 RMK A01 T10681102  RH  077%=      5-min Rain = 0
KARS 121120Z 18006KT M06/M10 A3022 RMK A01 T10641102  RH  074%=      5-min Rain = 0
KARS 121125Z 18005KT M06/M10 A3022 RMK A01 T10621102  RH  073%=      5-min Rain = 0
KARS 121130Z 18005KT M06/M10 A3022 RMK A01 T10581100  RH  072%=      5-min Rain = 0
KARS 121135Z 18005KT M06/M10 A3022 RMK A01 T10561099  RH  071%=      5-min Rain = 0
KARS 121140Z 18006KT M06/M10 A3022 RMK A01 T10571101  RH  071%=      5-min Rain = 0
KARS 121145Z 18005KT M06/M10 A3022 RMK A01 T10611103  RH  071%=      5-min Rain = 0
KARS 121150Z 18005KT M06/M11 A3022 RMK A01 T10641105  RH  072%=      5-min Rain = 0
KARS 121155Z 18006KT M06/M11 A3022 RMK A01 T10641105  RH  073%=      5-min Rain = 0
KARS 121200Z 18006KT M07/M11 A3022 RMK A01 T10661106  RH  072%=      5-min Rain = 0
KARS 121205Z 19006KT M07/M10 A3022 RMK A01 T10651104  RH  074%=      5-min Rain = 0
KARS 121210Z 20005KT M06/M11 A3022 RMK A01 T10641105  RH  072%=      5-min Rain = 0
KARS 121215Z 19005KT M07/M11 A3022 RMK A01 T10681106  RH  074%=      5-min Rain = 0
KARS 121220Z 20005KT M07/M11 A3022 RMK A01 T10721109  RH  075%=      5-min Rain = 0
KARS 121225Z 20005KT M08/M11 A3022 RMK A01 T10761111  RH  075%=      5-min Rain = 0
KARS 121230Z 20005KT M08/M11 A3022 RMK A01 T10761110  RH  076%=      5-min Rain = 0
KARS 121235Z 20004KT M08/M11 A3023 RMK A01 T10751110  RH  076%=      5-min Rain = 0
KARS 121240Z 21004KT M08/M11 A3023 RMK A01 T10761111  RH  076%=      5-min Rain = 0
KARS 121245Z 21004KT M08/M11 A3023 RMK A01 T10771112  RH  076%=      5-min Rain = 0
KARS 121250Z 20004KT M08/M11 A3023 RMK A01 T10791112  RH  077%=      5-min Rain = 0
KARS 121255Z 20004KT M08/M11 A3023 RMK A01 T10791110  RH  078%=      5-min Rain = 0
KARS 121300Z 20005KT M08/M11 A3023 RMK A01 T10781108  RH  079%=      5-min Rain = 0
KARS 121305Z 19005KT M08/M11 A3023 RMK A01 T10781109  RH  078%=      5-min Rain = 0
KARS 121310Z 19006KT M08/M11 A3023 RMK A01 T10821112  RH  078%=      5-min Rain = 0
KARS 121315Z 19007KT M09/M11 A3023 RMK A01 T10861113  RH  080%=      5-min Rain = 0
KARS 121320Z 20007KT M09/M11 A3023 RMK A01 T10851108  RH  083%=      5-min Rain = 0
KARS 121325Z 20007KT M08/M11 A3023 RMK A01 T10811106  RH  082%=      5-min Rain = 0
KARS 121330Z 21006KT M08/M11 A3023 RMK A01 T10781105  RH  080%=      5-min Rain = 0
KARS 121335Z 21006KT M08/M11 A3024 RMK A01 T10801109  RH  079%=      5-min Rain = 0
KARS 121340Z 22007KT M08/M11 A3024 RMK A01 T10821111  RH  079%=      5-min Rain = 0
KARS 121345Z 22007KT M08/M11 A3024 RMK A01 T10811108  RH  080%=      5-min Rain = 0
KARS 121350Z 22006KT M08/M11 A3024 RMK A01 T10781107  RH  079%=      5-min Rain = 0
KARS 121355Z 22005KT M08/M11 A3024 RMK A01 T10761108  RH  078%=      5-min Rain = 0
KARS 121400Z 22005KT M08/M11 A3024 RMK A01 T10761109  RH  077%=      5-min Rain = 0
KARS 121405Z 21006KT M08/M11 A3024 RMK A01 T10751108  RH  076%=      5-min Rain = 0
KARS 121410Z 20006KT M07/M11 A3024 RMK A01 T10731106  RH  077%=      5-min Rain = 0
KARS 121415Z 20006KT M07/M10 A3024 RMK A01 T10731104  RH  078%=      5-min Rain = 0
KARS 121420Z 20006KT M07/M10 A3024 RMK A01 T10721103  RH  078%=      5-min Rain = 0
KARS 121425Z 19005KT M07/M10 A3024 RMK A01 T10701101  RH  078%=      5-min Rain = 0
KARS 121430Z 18004KT M07/M10 A3024 RMK A01 T10671099  RH  078%=      5-min Rain = 0
KARS 121435Z 18004KT M06/M10 A3025 RMK A01 T10621096  RH  077%=      5-min Rain = 0
KARS 121440Z 17004KT M06/M09 A3025 RMK A01 T10571093  RH  075%=      5-min Rain = 0
KARS 121445Z 17004KT M05/M09 A3025 RMK A01 T10521090  RH  075%=      5-min Rain = 0
KARS 121450Z 17005KT M05/M09 A3025 RMK A01 T10471087  RH  073%=      5-min Rain = 0
KARS 121455Z 16006KT M04/M08 A3025 RMK A01 T10401084  RH  072%=      5-min Rain = 0
KARS 121500Z 17005KT M03/M08 A3025 RMK A01 T10341084  RH  068%=      5-min Rain = 0
KARS 121505Z 18007KT M03/M08 A3025 RMK A01 T10311083  RH  067%=      5-min Rain = 0
KARS 121510Z 17008KT M03/M08 A3025 RMK A01 T10291083  RH  066%=      5-min Rain = 0
KARS 121515Z 18009KT M03/M08 A3025 RMK A01 T10271083  RH  065%=      5-min Rain = 0
KARS 121520Z 18009KT M02/M08 A3026 RMK A01 T10241080  RH  065%=      5-min Rain = 0
KARS 121525Z 19009KT M02/M08 A3026 RMK A01 T10191078  RH  064%=      5-min Rain = 0
KARS 121530Z 18009KT M02/M08 A3026 RMK A01 T10161080  RH  062%=      5-min Rain = 0
KARS 121535Z 19010KT M01/M08 A3025 RMK A01 T10141081  RH  060%=      5-min Rain = 0
KARS 121540Z 18011KT M01/M08 A3025 RMK A01 T10141082  RH  060%=      5-min Rain = 0
KARS 121545Z 18010KT M01/M08 A3026 RMK A01 T10121082  RH  059%=      5-min Rain = 0
KARS 121550Z 19011KT M01/M08 A3025 RMK A01 T10091082  RH  058%=      5-min Rain = 0
KARS 121555Z 19011KT M01/M08 A3025 RMK A01 T10051082  RH  056%=      5-min Rain = 0
KARS 121600Z 19011KT M00/M08 A3025 RMK A01 T10041083  RH  055%=      5-min Rain = 0
KARS 121605Z 19011KT 00/M08 A3025 RMK A01 T00011083  RH  053%=      5-min Rain = 0
KARS 121610Z 19012KT 00/M09 A3025 RMK A01 T00011085  RH  052%=      5-min Rain = 0
KARS 121615Z 19012KT 00/M08 A3025 RMK A01 T00041084  RH  052%=      5-min Rain = 0
KARS 121620Z 19012KT 01/M08 A3024 RMK A01 T00071084  RH  050%=      5-min Rain = 0
KARS 121625Z 18013KT 01/M08 A3024 RMK A01 T00121083  RH  049%=      5-min Rain = 0
KARS 121630Z 19013KT 01/M08 A3024 RMK A01 T00141084  RH  048%=      5-min Rain = 0
KARS 121635Z 19013KT 02/M08 A3024 RMK A01 T00161083  RH  048%=      5-min Rain = 0
KARS 121640Z 19015KT 02/M08 A3024 RMK A01 T00181083  RH  047%=      5-min Rain = 0
KARS 121645Z 19014KT 02/M08 A3024 RMK A01 T00191082  RH  047%=      5-min Rain = 0
KARS 121650Z 18014KT 02/M08 A3024 RMK A01 T00211083  RH  046%=      5-min Rain = 0
KARS 121655Z 19013KT 02/M08 A3024 RMK A01 T00221083  RH  045%=      5-min Rain = 0
KARS 121700Z 18013KT 02/M08 A3023 RMK A01 T00241084  RH  045%=      5-min Rain = 0
KARS 121705Z 18012G17KT 03/M09 A3023 RMK A01 T00281085  RH  043%=      5-min Rain = 0
KARS 121710Z 19011KT 03/M09 A3024 RMK A01 T00301085  RH  042%=      5-min Rain = 0
KARS 121715Z 18012KT 03/M09 A3024 RMK A01 T00321089  RH  041%=      5-min Rain = 0
KARS 121720Z 18012KT 03/M09 A3024 RMK A01 T00331089  RH  040%=      5-min Rain = 0
KARS 121725Z 17012KT 04/M09 A3023 RMK A01 T00351089  RH  040%=      5-min Rain = 0
KARS 121730Z 18013G18KT 04/M09 A3023 RMK A01 T00361092  RH  039%=      5-min Rain = 0
KARS 121735Z 18012KT 04/M09 A3023 RMK A01 T00391094  RH  037%=      5-min Rain = 0
KARS 121740Z 18013G18KT 04/M09 A3022 RMK A01 T00431093  RH  036%=      5-min Rain = 0
KARS 121745Z 18014KT 04/M10 A3022 RMK A01 T00401098  RH  036%=      5-min Rain = 0
KARS 121750Z 17014KT 04/M10 A3022 RMK A01 T00401099  RH  035%=      5-min Rain = 0
KARS 121755Z 18013KT 04/M10 A3021 RMK A01 T00411101  RH  034%=      5-min Rain = 0
KARS 121800Z 17012KT 04/M09 A3021 RMK A01 T00441093  RH  036%=      5-min Rain = 0
KARS 121805Z 18012KT 05/M10 A3021 RMK A01 T00511095  RH  034%=      5-min Rain = 0
KARS 121810Z 18013G18KT 05/M10 A302 RMK A01 T00511096  RH  034%=      5-min Rain = 0
KARS 121815Z 18011KT 06/M10 A302 RMK A01 T00561096  RH  033%=      5-min Rain = 0
KARS 121820Z 18013KT 06/M10 A3019 RMK A01 T00551099  RH  032%=      5-min Rain = 0
KARS 121825Z 18014G19KT 06/M10 A3018 RMK A01 T00561101  RH  031%=      5-min Rain = 0
KARS 121830Z 18016KT 06/M10 A3018 RMK A01 T00591104  RH  030%=      5-min Rain = 0
KARS 121835Z 18017KT 06/M11 A3017 RMK A01 T00581105  RH  030%=      5-min Rain = 0
KARS 121840Z 19017G22KT 06/M11 A3017 RMK A01 T00581105  RH  030%=      5-min Rain = 0
KARS 121845Z 18016KT 06/M11 A3017 RMK A01 T00571105  RH  030%=      5-min Rain = 0
KARS 121850Z 18015KT 06/M10 A3016 RMK A01 T00611103  RH  030%=      5-min Rain = 0
KARS 121855Z 18014G19KT 06/M10 A3016 RMK A01 T00631102  RH  029%=      5-min Rain = 0
KARS 121900Z 18014G20KT 07/M10 A3016 RMK A01 T00701102  RH  028%=      5-min Rain = 0
KARS 121905Z 19014G19KT 07/M10 A3015 RMK A01 T00671102  RH  029%=      5-min Rain = 0
KARS 121910Z 18015G20KT 07/M10 A3015 RMK A01 T00681103  RH  028%=      5-min Rain = 0
KARS 121915Z 19015G20KT 07/M10 A3015 RMK A01 T00701104  RH  028%=      5-min Rain = 0
KARS 121920Z 20013G20KT 07/M10 A3015 RMK A01 T00711103  RH  028%=      5-min Rain = 0
KARS 121925Z 19014G19KT 07/M10 A3015 RMK A01 T00711103  RH  028%=      5-min Rain = 0
KARS 121930Z 20015G20KT 07/M10 A3014 RMK A01 T00721103  RH  027%=      5-min Rain = 0
KARS 121935Z 19016G22KT 07/M10 A3014 RMK A01 T00731103  RH  027%=      5-min Rain = 0
KARS 121940Z 18015G20KT 08/M10 A3014 RMK A01 T00751103  RH  027%=      5-min Rain = 0
KARS 121945Z 19015KT 08/M10 A3013 RMK A01 T00761103  RH  027%=      5-min Rain = 0
KARS 121950Z 19013KT 08/M10 A3013 RMK A01 T00771103  RH  027%=      5-min Rain = 0
KARS 121955Z 20013G20KT 08/M10 A3013 RMK A01 T00801102  RH  026%=      5-min Rain = 0
KARS 122000Z 19016G21KT 08/M10 A3013 RMK A01 T00781103  RH  026%=      5-min Rain = 0
KARS 122005Z 20014G21KT 08/M10 A3013 RMK A01 T00791102  RH  026%=      5-min Rain = 0
KARS 122010Z 19014G20KT 08/M10 A3013 RMK A01 T00811102  RH  026%=      5-min Rain = 0
KARS 122015Z 19015KT 08/M10 A3013 RMK A01 T00821103  RH  026%=      5-min Rain = 0
KARS 122020Z 19014G19KT 08/M10 A3012 RMK A01 T00811102  RH  026%=      5-min Rain = 0
KARS 122025Z 19013G18KT 08/M10 A3013 RMK A01 T00841101  RH  026%=      5-min Rain = 0
KARS 122030Z 19015KT 09/M10 A3012 RMK A01 T00861101  RH  025%=      5-min Rain = 0
KARS 122035Z 21012G17KT 09/M10 A3012 RMK A01 T00851100  RH  026%=      5-min Rain = 0
KARS 122040Z 20013KT 09/M10 A3012 RMK A01 T00861099  RH  026%=      5-min Rain = 0
KARS 122045Z 19012KT 09/M10 A3012 RMK A01 T00861099  RH  026%=      5-min Rain = 0
KARS 122050Z 20012KT 09/M10 A3012 RMK A01 T00881098  RH  026%=      5-min Rain = 0
KARS 122055Z 19013G19KT 09/M10 A3012 RMK A01 T00891097  RH  026%=      5-min Rain = 0
KARS 122100Z 18014G21KT 09/M10 A3012 RMK A01 T00881097  RH  026%=      5-min Rain = 0
KARS 122105Z 18013G19KT 09/M10 A3012 RMK A01 T00911097  RH  025%=      5-min Rain = 0
KARS 122110Z 19013KT 09/M10 A3012 RMK A01 T00901095  RH  026%=      5-min Rain = 0
KARS 122115Z 18014KT 09/M10 A3012 RMK A01 T00901096  RH  026%=      5-min Rain = 0
KARS 122120Z 18013G18KT 09/M10 A3012 RMK A01 T00901096  RH  026%=      5-min Rain = 0
KARS 122125Z 19014G19KT 09/M10 A3012 RMK A01 T00891097  RH  026%=      5-min Rain = 0
KARS 122130Z 18014KT 09/M10 A3012 RMK A01 T00891096  RH  026%=      5-min Rain = 0
KARS 122135Z 18014G19KT 09/M10 A3012 RMK A01 T00911096  RH  025%=      5-min Rain = 0
KARS 122140Z 17014KT 09/M10 A3012 RMK A01 T00911096  RH  026%=      5-min Rain = 0
KARS 122145Z 17013KT 09/M10 A3012 RMK A01 T00911096  RH  026%=      5-min Rain = 0
KARS 122150Z 18013KT 09/M10 A3012 RMK A01 T00931095  RH  025%=      5-min Rain = 0
KARS 122155Z 17014KT 09/M10 A3012 RMK A01 T00921095  RH  025%=      5-min Rain = 0
KARS 122200Z 16015KT 09/M10 A3012 RMK A01 T00931095  RH  025%=      5-min Rain = 0
KARS 122205Z 17013G18KT 10/M09 A3011 RMK A01 T00951094  RH  025%=      5-min Rain = 0
KARS 122210Z 16014G19KT 10/M09 A3012 RMK A01 T00961094  RH  025%=      5-min Rain = 0
KARS 122215Z 16014KT 09/M10 A3011 RMK A01 T00941095  RH  025%=      5-min Rain = 0
KARS 122220Z 17014KT 10/M09 A3011 RMK A01 T00951094  RH  025%=      5-min Rain = 0
KARS 122225Z 17014KT 10/M10 A3011 RMK A01 T00951095  RH  025%=      5-min Rain = 0
KARS 122230Z 17013KT 09/M10 A3011 RMK A01 T00941095  RH  025%=      5-min Rain = 0
KARS 122235Z 16013KT 09/M10 A3012 RMK A01 T00941095  RH  025%=      5-min Rain = 0
KARS 122240Z 16012KT 09/M09 A3012 RMK A01 T00941094  RH  025%=      5-min Rain = 0
KARS 122245Z 16014KT 09/M09 A3012 RMK A01 T00941094  RH  026%=      5-min Rain = 0
KARS 122250Z 17012G17KT 09/M09 A3012 RMK A01 T00931092  RH  026%=      5-min Rain = 0
KARS 122255Z 18009KT 09/M09 A3012 RMK A01 T00931092  RH  026%=      5-min Rain = 0
KARS 122300Z 17011KT 09/M09 A3012 RMK A01 T00931092  RH  026%=      5-min Rain = 0
KARS 122305Z 18011KT 09/M09 A3012 RMK A01 T00921092  RH  026%=      5-min Rain = 0
KARS 122310Z 16010KT 09/M10 A3013 RMK A01 T00901095  RH  026%=      5-min Rain = 0
KARS 122315Z 15011KT 09/M10 A3013 RMK A01 T00891096  RH  026%=      5-min Rain = 0
KARS 122320Z 16012KT 09/M10 A3013 RMK A01 T00881096  RH  026%=      5-min Rain = 0
KARS 122325Z 16011KT 09/M10 A3013 RMK A01 T00851097  RH  026%=      5-min Rain = 0
KARS 122330Z 15012KT 08/M10 A3013 RMK A01 T00831098  RH  027%=      5-min Rain = 0
KARS 122335Z 15010KT 08/M10 A3014 RMK A01 T00801099  RH  027%=      5-min Rain = 0
KARS 122340Z 15010KT 08/M10 A3013 RMK A01 T00771099  RH  027%=      5-min Rain = 0
KARS 122345Z 15010KT 07/M10 A3013 RMK A01 T00741099  RH  028%=      5-min Rain = 0
KARS 122350Z 15009KT 07/M10 A3014 RMK A01 T00701099  RH  029%=      5-min Rain = 0
KARS 122355Z 15008KT 07/M10 A3014 RMK A01 T00671099  RH  029%=      5-min Rain = 0
KARS 130000Z 15008KT 06/M10 A3014 RMK A01 T00621100  RH  030%=      5-min Rain = 0
KARS 130005Z 14007KT 06/M10 A3015 RMK A01 T00581101  RH  031%=      5-min Rain = 0
KARS 130010Z 14007KT 05/M10 A3015 RMK A01 T00541102  RH  031%=      5-min Rain = 0
KARS 130015Z 12008KT 05/M10 A3015 RMK A01 T00491103  RH  032%=      5-min Rain = 0
KARS 130020Z 12008KT 05/M10 A3015 RMK A01 T00471104  RH  032%=      5-min Rain = 0
KARS 130025Z 12009KT 05/M11 A3015 RMK A01 T00481105  RH  032%=      5-min Rain = 0
KARS 130030Z 12008KT 05/M11 A3016 RMK A01 T00481106  RH  032%=      5-min Rain = 0
KARS 130035Z 12009KT 05/M11 A3016 RMK A01 T00451107  RH  032%=      5-min Rain = 0
KARS 130040Z 12009KT 04/M11 A3016 RMK A01 T00421108  RH  033%=      5-min Rain = 0
KARS 130045Z 12009KT 04/M11 A3016 RMK A01 T00391108  RH  033%=      5-min Rain = 0
KARS 130050Z 13009KT 04/M11 A3016 RMK A01 T00371109  RH  033%=      5-min Rain = 0
KARS 130055Z 13010KT 04/M11 A3017 RMK A01 T00361110  RH  033%=      5-min Rain = 0
KARS 130100Z 13009KT 04/M11 A3017 RMK A01 T00351110  RH  034%=      5-min Rain = 0
KARS 130105Z 11009KT 04/M11 A3018 RMK A01 T00351111  RH  034%=      5-min Rain = 0
KARS 130110Z 10009KT 03/M11 A3019 RMK A01 T00331111  RH  034%=      5-min Rain = 0
KARS 130115Z 11009KT 03/M11 A3019 RMK A01 T00291111  RH  035%=      5-min Rain = 0
KARS 130120Z 11009KT 03/M11 A302 RMK A01 T00271111  RH  035%=      5-min Rain = 0
KARS 130125Z 11010KT 03/M11 A302 RMK A01 T00271111  RH  035%=      5-min Rain = 0
KARS 130130Z 11010KT 03/M11 A302 RMK A01 T00261111  RH  035%=      5-min Rain = 0
KARS 130135Z 10011KT 03/M11 A302 RMK A01 T00251110  RH  036%=      5-min Rain = 0
KARS 130140Z 11011KT 02/M11 A3021 RMK A01 T00241111  RH  036%=      5-min Rain = 0
KARS 130145Z 11011KT 02/M11 A3021 RMK A01 T00221111  RH  037%=      5-min Rain = 0
KARS 130150Z 10011KT 02/M11 A3022 RMK A01 T00211111  RH  037%=      5-min Rain = 0
KARS 130155Z 10010KT 02/M11 A3023 RMK A01 T00181111  RH  038%=      5-min Rain = 0
KARS 130200Z 09010KT 02/M11 A3023 RMK A01 T00171111  RH  038%=      5-min Rain = 0
KARS 130205Z 08011KT 02/M11 A3024 RMK A01 T00151111  RH  038%=      5-min Rain = 0
KARS 130210Z 09011KT 01/M11 A3025 RMK A01 T00121111  RH  039%=      5-min Rain = 0
KARS 130215Z 09010KT 01/M11 A3025 RMK A01 T00121113  RH  039%=      5-min Rain = 0
KARS 130220Z 09009KT 01/M11 A3025 RMK A01 T00121113  RH  039%=      5-min Rain = 0
KARS 130225Z 08010KT 01/M11 A3026 RMK A01 T00111112  RH  039%=      5-min Rain = 0
KARS 130230Z 09010G15KT 01/M11 A3027 RMK A01 T00101113  RH  039%=      5-min Rain = 0
KARS 130235Z 09011KT 01/M11 A3028 RMK A01 T00111114  RH  038%=      5-min Rain = 0
KARS 130240Z 09012KT 01/M12 A3028 RMK A01 T00131115  RH  038%=      5-min Rain = 0
KARS 130245Z 08011KT 01/M12 A3029 RMK A01 T00131115  RH  038%=      5-min Rain = 0
KARS 130250Z 08009KT 01/M11 A3029 RMK A01 T00121114  RH  038%=      5-min Rain = 0
KARS 130255Z 08009KT 01/M11 A3029 RMK A01 T00111114  RH  039%=      5-min Rain = 0
KARS 130300Z 08009KT 01/M11 A303 RMK A01 T00091114  RH  039%=      5-min Rain = 0
KARS 130305Z 07011KT 01/M12 A303 RMK A01 T00081115  RH  039%=      5-min Rain = 0
KARS 130310Z 08011KT 01/M12 A3031 RMK A01 T00061117  RH  039%=      5-min Rain = 0
KARS 130315Z 08011KT 01/M12 A3031 RMK A01 T00061117  RH  039%=      5-min Rain = 0
KARS 130320Z 08011KT 01/M12 A3032 RMK A01 T00061117  RH  039%=      5-min Rain = 0
KARS 130325Z 09010KT 01/M12 A3032 RMK A01 T00051118  RH  039%=      5-min Rain = 0
KARS 130330Z 10010KT 01/M12 A3031 RMK A01 T00051118  RH  039%=      5-min Rain = 0
KARS 130335Z 11010KT 01/M12 A3032 RMK A01 T00051118  RH  039%=      5-min Rain = 0
KARS 130340Z 09010KT 01/M12 A3033 RMK A01 T00051118  RH  039%=      5-min Rain = 0
KARS 130345Z 08010KT 00/M12 A3034 RMK A01 T00041118  RH  039%=      5-min Rain = 0
KARS 130350Z 09010KT 00/M12 A3034 RMK A01 T00031118  RH  039%=      5-min Rain = 0
KARS 130355Z 10009KT 00/M12 A3033 RMK A01 T00021118  RH  040%=      5-min Rain = 0
KARS 130400Z 09008KT 00/M12 A3034 RMK A01 T00021118  RH  040%=      5-min Rain = 0
KARS 130405Z 09009KT 00/M12 A3035 RMK A01 T00011119  RH  040%=      5-min Rain = 0
KARS 130410Z 08009KT 00/M12 A3035 RMK A01 T00011118  RH  040%=      5-min Rain = 0
KARS 130415Z 08009KT 00/12 A3036 RMK A01 T00000-118  RH  040%=      5-min Rain = 0
KARS 130420Z 07009KT M00/M12 A3036 RMK A01 T10011118  RH  041%=      5-min Rain = 0
KARS 130425Z 07009KT M00/M12 A3037 RMK A01 T10021119  RH  041%=      5-min Rain = 0
KARS 130430Z 07009KT M00/M12 A3037 RMK A01 T10031119  RH  041%=      5-min Rain = 0
KARS 130435Z 08009KT M00/M12 A3037 RMK A01 T10031119  RH  041%=      5-min Rain = 0
KARS 130440Z 06009KT M00/M12 A3037 RMK A01 T10041120  RH  041%=      5-min Rain = 0
KARS 130445Z 06009KT M00/M12 A3038 RMK A01 T10041120  RH  041%=      5-min Rain = 0
KARS 130450Z 07009KT M01/M12 A3037 RMK A01 T10051120  RH  041%=      5-min Rain = 0
KARS 130455Z 07008KT M01/M12 A3038 RMK A01 T10061120  RH  042%=      5-min Rain = 0
KARS 130500Z 07008KT M01/M12 A3038 RMK A01 T10071120  RH  042%=      5-min Rain = 0
KARS 130505Z 05007KT M01/M12 A3039 RMK A01 T10071120  RH  042%=      5-min Rain = 0
KARS 130510Z 05009KT M01/M12 A3039 RMK A01 T10071121  RH  042%=      5-min Rain = 0
KARS 130515Z 06009KT M01/M12 A3039 RMK A01 T10071121  RH  041%=      5-min Rain = 0
KARS 130520Z 06008KT M01/M12 A3039 RMK A01 T10071121  RH  041%=      5-min Rain = 0
KARS 130525Z 06007KT M01/M12 A3039 RMK A01 T10061121  RH  041%=      5-min Rain = 0
KARS 130530Z 06006KT M01/M12 A3039 RMK A01 T10061121  RH  041%=      5-min Rain = 0
KARS 130535Z 07006KT M01/M12 A3039 RMK A01 T10061121  RH  041%=      5-min Rain = 0
KARS 130540Z 06005KT M01/M12 A3039 RMK A01 T10071121  RH  041%=      5-min Rain = 0
KARS 130545Z 07007KT M01/M12 A3039 RMK A01 T10071122  RH  041%=      5-min Rain = 0
KARS 130550Z 07007KT M01/M12 A3039 RMK A01 T10071123  RH  041%=      5-min Rain = 0
KARS 130555Z 07007KT M01/M12 A3039 RMK A01 T10081122  RH  041%=      5-min Rain = 0

Page generated in 0.0092 seconds.